sensor_id;sensor_type;location;lat;lon;timestamp;P1;durP1;ratioP1;P2;durP2;ratioP2
42104;SDS011;70664;51.472;5.712;2023-10-31T00:00:45;7.70;;;2.58;;
42104;SDS011;70664;51.472;5.712;2023-10-31T00:03:10;7.68;;;3.33;;
42104;SDS011;70664;51.472;5.712;2023-10-31T00:05:36;8.10;;;2.65;;
42104;SDS011;70664;51.472;5.712;2023-10-31T00:08:02;4.97;;;2.83;;
42104;SDS011;70664;51.472;5.712;2023-10-31T00:10:28;6.22;;;2.88;;
42104;SDS011;70664;51.472;5.712;2023-10-31T00:12:54;6.90;;;3.00;;
42104;SDS011;70664;51.472;5.712;2023-10-31T00:15:20;6.45;;;2.80;;
42104;SDS011;70664;51.472;5.712;2023-10-31T00:17:46;5.88;;;2.78;;
42104;SDS011;70664;51.472;5.712;2023-10-31T00:20:11;7.30;;;3.17;;
42104;SDS011;70664;51.472;5.712;2023-10-31T00:22:37;4.85;;;2.58;;
42104;SDS011;70664;51.472;5.712;2023-10-31T00:25:03;6.88;;;3.40;;
42104;SDS011;70664;51.472;5.712;2023-10-31T00:27:29;7.65;;;2.92;;
42104;SDS011;70664;51.472;5.712;2023-10-31T00:29:55;6.65;;;2.60;;
42104;SDS011;70664;51.472;5.712;2023-10-31T00:32:21;6.22;;;2.47;;
42104;SDS011;70664;51.472;5.712;2023-10-31T00:34:47;6.35;;;2.72;;
42104;SDS011;70664;51.472;5.712;2023-10-31T00:37:13;6.10;;;2.80;;
42104;SDS011;70664;51.472;5.712;2023-10-31T00:39:39;7.68;;;2.67;;
42104;SDS011;70664;51.472;5.712;2023-10-31T00:42:04;6.25;;;2.75;;
42104;SDS011;70664;51.472;5.712;2023-10-31T00:44:30;6.72;;;2.88;;
42104;SDS011;70664;51.472;5.712;2023-10-31T00:46:56;6.72;;;2.55;;
42104;SDS011;70664;51.472;5.712;2023-10-31T00:49:22;7.22;;;2.75;;
42104;SDS011;70664;51.472;5.712;2023-10-31T00:51:47;3.95;;;2.05;;
42104;SDS011;70664;51.472;5.712;2023-10-31T00:54:13;5.63;;;2.15;;
42104;SDS011;70664;51.472;5.712;2023-10-31T00:56:39;4.88;;;2.17;;
42104;SDS011;70664;51.472;5.712;2023-10-31T00:59:05;7.43;;;2.70;;
42104;SDS011;70664;51.472;5.712;2023-10-31T01:01:30;5.00;;;2.65;;
42104;SDS011;70664;51.472;5.712;2023-10-31T01:03:57;6.10;;;2.72;;
42104;SDS011;70664;51.472;5.712;2023-10-31T01:06:22;5.30;;;2.20;;
42104;SDS011;70664;51.472;5.712;2023-10-31T01:08:48;6.75;;;2.30;;
42104;SDS011;70664;51.472;5.712;2023-10-31T01:11:14;4.78;;;2.28;;
42104;SDS011;70664;51.472;5.712;2023-10-31T01:13:40;5.40;;;2.60;;
42104;SDS011;70664;51.472;5.712;2023-10-31T01:16:05;5.57;;;2.40;;
42104;SDS011;70664;51.472;5.712;2023-10-31T01:18:32;5.55;;;2.38;;
42104;SDS011;70664;51.472;5.712;2023-10-31T01:20:57;4.47;;;2.55;;
42104;SDS011;70664;51.472;5.712;2023-10-31T01:23:23;6.55;;;2.72;;
42104;SDS011;70664;51.472;5.712;2023-10-31T01:25:49;6.32;;;2.53;;
42104;SDS011;70664;51.472;5.712;2023-10-31T01:28:15;5.63;;;3.00;;
42104;SDS011;70664;51.472;5.712;2023-10-31T01:30:40;6.47;;;2.45;;
42104;SDS011;70664;51.472;5.712;2023-10-31T01:33:06;5.53;;;2.70;;
42104;SDS011;70664;51.472;5.712;2023-10-31T01:35:32;5.90;;;2.53;;
42104;SDS011;70664;51.472;5.712;2023-10-31T01:37:58;7.15;;;3.08;;
42104;SDS011;70664;51.472;5.712;2023-10-31T01:40:24;4.53;;;2.58;;
42104;SDS011;70664;51.472;5.712;2023-10-31T01:42:49;5.55;;;2.60;;
42104;SDS011;70664;51.472;5.712;2023-10-31T01:45:15;5.22;;;2.90;;
42104;SDS011;70664;51.472;5.712;2023-10-31T01:47:42;11.27;;;3.92;;
42104;SDS011;70664;51.472;5.712;2023-10-31T01:50:11;5.13;;;2.75;;
42104;SDS011;70664;51.472;5.712;2023-10-31T01:52:37;4.65;;;3.00;;
42104;SDS011;70664;51.472;5.712;2023-10-31T01:55:03;6.43;;;2.70;;
42104;SDS011;70664;51.472;5.712;2023-10-31T01:57:30;6.45;;;2.92;;
42104;SDS011;70664;51.472;5.712;2023-10-31T01:59:56;5.80;;;3.67;;
42104;SDS011;70664;51.472;5.712;2023-10-31T02:02:22;5.45;;;2.90;;
42104;SDS011;70664;51.472;5.712;2023-10-31T02:04:50;6.43;;;3.28;;
42104;SDS011;70664;51.472;5.712;2023-10-31T02:07:17;6.80;;;3.15;;
42104;SDS011;70664;51.472;5.712;2023-10-31T02:09:42;10.40;;;3.72;;
42104;SDS011;70664;51.472;5.712;2023-10-31T02:12:08;5.45;;;3.50;;
42104;SDS011;70664;51.472;5.712;2023-10-31T02:14:34;6.40;;;3.28;;
42104;SDS011;70664;51.472;5.712;2023-10-31T02:17:00;5.78;;;3.42;;
42104;SDS011;70664;51.472;5.712;2023-10-31T02:19:26;5.35;;;3.42;;
42104;SDS011;70664;51.472;5.712;2023-10-31T02:21:52;6.03;;;3.35;;
42104;SDS011;70664;51.472;5.712;2023-10-31T02:24:17;5.85;;;3.30;;
42104;SDS011;70664;51.472;5.712;2023-10-31T02:26:43;8.15;;;3.60;;
42104;SDS011;70664;51.472;5.712;2023-10-31T02:29:09;6.57;;;3.47;;
42104;SDS011;70664;51.472;5.712;2023-10-31T02:31:35;7.72;;;3.90;;
42104;SDS011;70664;51.472;5.712;2023-10-31T02:34:00;5.88;;;3.28;;
42104;SDS011;70664;51.472;5.712;2023-10-31T02:36:26;5.72;;;3.30;;
42104;SDS011;70664;51.472;5.712;2023-10-31T02:38:52;7.22;;;4.15;;
42104;SDS011;70664;51.472;5.712;2023-10-31T02:41:18;8.38;;;3.55;;
42104;SDS011;70664;51.472;5.712;2023-10-31T02:43:44;5.57;;;3.00;;
42104;SDS011;70664;51.472;5.712;2023-10-31T02:46:10;6.70;;;3.30;;
42104;SDS011;70664;51.472;5.712;2023-10-31T02:48:37;9.38;;;3.75;;
42104;SDS011;70664;51.472;5.712;2023-10-31T02:51:04;5.63;;;3.83;;
42104;SDS011;70664;51.472;5.712;2023-10-31T02:53:32;5.40;;;3.35;;
42104;SDS011;70664;51.472;5.712;2023-10-31T02:55:59;6.00;;;3.50;;
42104;SDS011;70664;51.472;5.712;2023-10-31T02:58:25;6.88;;;3.65;;
42104;SDS011;70664;51.472;5.712;2023-10-31T03:00:50;6.13;;;3.65;;
42104;SDS011;70664;51.472;5.712;2023-10-31T03:03:16;4.93;;;3.40;;
42104;SDS011;70664;51.472;5.712;2023-10-31T03:05:42;4.93;;;3.10;;
42104;SDS011;70664;51.472;5.712;2023-10-31T03:08:08;6.43;;;3.70;;
42104;SDS011;70664;51.472;5.712;2023-10-31T03:10:35;5.78;;;3.45;;
42104;SDS011;70664;51.472;5.712;2023-10-31T03:13:03;4.80;;;3.50;;
42104;SDS011;70664;51.472;5.712;2023-10-31T03:15:28;5.90;;;3.50;;
42104;SDS011;70664;51.472;5.712;2023-10-31T03:17:54;7.10;;;4.38;;
42104;SDS011;70664;51.472;5.712;2023-10-31T03:20:20;4.90;;;3.50;;
42104;SDS011;70664;51.472;5.712;2023-10-31T03:22:46;4.78;;;3.08;;
42104;SDS011;70664;51.472;5.712;2023-10-31T03:25:11;6.07;;;3.92;;
42104;SDS011;70664;51.472;5.712;2023-10-31T03:27:37;5.78;;;3.75;;
42104;SDS011;70664;51.472;5.712;2023-10-31T03:30:03;4.00;;;3.22;;
42104;SDS011;70664;51.472;5.712;2023-10-31T03:32:30;6.30;;;3.80;;
42104;SDS011;70664;51.472;5.712;2023-10-31T03:34:55;6.22;;;3.55;;
42104;SDS011;70664;51.472;5.712;2023-10-31T03:37:21;5.65;;;3.47;;
42104;SDS011;70664;51.472;5.712;2023-10-31T03:39:47;7.45;;;3.92;;
42104;SDS011;70664;51.472;5.712;2023-10-31T03:42:12;7.72;;;3.97;;
42104;SDS011;70664;51.472;5.712;2023-10-31T03:44:38;6.88;;;4.07;;
42104;SDS011;70664;51.472;5.712;2023-10-31T03:47:04;4.97;;;3.33;;
42104;SDS011;70664;51.472;5.712;2023-10-31T03:49:30;6.72;;;4.47;;
42104;SDS011;70664;51.472;5.712;2023-10-31T03:51:56;7.55;;;3.90;;
42104;SDS011;70664;51.472;5.712;2023-10-31T03:54:21;8.10;;;3.90;;
42104;SDS011;70664;51.472;5.712;2023-10-31T03:56:47;5.20;;;3.58;;
42104;SDS011;70664;51.472;5.712;2023-10-31T03:59:13;6.20;;;4.10;;
42104;SDS011;70664;51.472;5.712;2023-10-31T04:01:39;11.10;;;4.45;;
42104;SDS011;70664;51.472;5.712;2023-10-31T04:04:05;6.88;;;4.05;;
42104;SDS011;70664;51.472;5.712;2023-10-31T04:06:31;5.63;;;3.85;;
42104;SDS011;70664;51.472;5.712;2023-10-31T04:08:57;7.70;;;4.43;;
42104;SDS011;70664;51.472;5.712;2023-10-31T04:11:23;5.05;;;3.88;;
42104;SDS011;70664;51.472;5.712;2023-10-31T04:13:49;5.22;;;3.80;;
42104;SDS011;70664;51.472;5.712;2023-10-31T04:16:14;4.55;;;3.58;;
42104;SDS011;70664;51.472;5.712;2023-10-31T04:18:41;5.32;;;3.85;;
42104;SDS011;70664;51.472;5.712;2023-10-31T04:21:07;5.93;;;4.28;;
42104;SDS011;70664;51.472;5.712;2023-10-31T04:23:32;6.43;;;4.28;;
42104;SDS011;70664;51.472;5.712;2023-10-31T04:25:58;8.00;;;4.43;;
42104;SDS011;70664;51.472;5.712;2023-10-31T04:28:24;5.30;;;3.90;;
42104;SDS011;70664;51.472;5.712;2023-10-31T04:30:50;5.70;;;4.20;;
42104;SDS011;70664;51.472;5.712;2023-10-31T04:33:16;6.45;;;3.90;;
42104;SDS011;70664;51.472;5.712;2023-10-31T04:35:41;5.70;;;3.97;;
42104;SDS011;70664;51.472;5.712;2023-10-31T04:38:07;6.15;;;4.38;;
42104;SDS011;70664;51.472;5.712;2023-10-31T04:40:33;7.38;;;3.72;;
42104;SDS011;70664;51.472;5.712;2023-10-31T04:42:59;4.82;;;3.60;;
42104;SDS011;70664;51.472;5.712;2023-10-31T04:45:25;5.80;;;4.32;;
42104;SDS011;70664;51.472;5.712;2023-10-31T04:47:50;6.22;;;3.70;;
42104;SDS011;70664;51.472;5.712;2023-10-31T04:50:16;5.55;;;3.75;;
42104;SDS011;70664;51.472;5.712;2023-10-31T04:52:42;4.47;;;3.53;;
42104;SDS011;70664;51.472;5.712;2023-10-31T04:55:08;6.00;;;4.47;;
42104;SDS011;70664;51.472;5.712;2023-10-31T04:57:34;5.25;;;4.00;;
42104;SDS011;70664;51.472;5.712;2023-10-31T05:00:00;4.68;;;4.07;;
42104;SDS011;70664;51.472;5.712;2023-10-31T05:02:25;5.40;;;4.18;;
42104;SDS011;70664;51.472;5.712;2023-10-31T05:04:51;4.93;;;3.70;;
42104;SDS011;70664;51.472;5.712;2023-10-31T05:07:17;7.10;;;4.47;;
42104;SDS011;70664;51.472;5.712;2023-10-31T05:09:43;5.18;;;3.85;;
42104;SDS011;70664;51.472;5.712;2023-10-31T05:12:09;4.72;;;3.72;;
42104;SDS011;70664;51.472;5.712;2023-10-31T05:14:35;5.22;;;4.00;;
42104;SDS011;70664;51.472;5.712;2023-10-31T05:17:01;4.93;;;3.50;;
42104;SDS011;70664;51.472;5.712;2023-10-31T05:19:27;4.95;;;3.53;;
42104;SDS011;70664;51.472;5.712;2023-10-31T05:21:53;5.25;;;3.28;;
42104;SDS011;70664;51.472;5.712;2023-10-31T05:24:18;4.13;;;3.17;;
42104;SDS011;70664;51.472;5.712;2023-10-31T05:26:45;4.10;;;3.10;;
42104;SDS011;70664;51.472;5.712;2023-10-31T05:29:12;5.10;;;3.50;;
42104;SDS011;70664;51.472;5.712;2023-10-31T05:31:37;4.68;;;3.30;;
42104;SDS011;70664;51.472;5.712;2023-10-31T05:34:03;5.05;;;3.47;;
42104;SDS011;70664;51.472;5.712;2023-10-31T05:36:29;4.57;;;3.60;;
42104;SDS011;70664;51.472;5.712;2023-10-31T05:38:55;4.22;;;3.50;;
42104;SDS011;70664;51.472;5.712;2023-10-31T05:41:21;4.97;;;3.63;;
42104;SDS011;70664;51.472;5.712;2023-10-31T05:43:47;3.80;;;3.22;;
42104;SDS011;70664;51.472;5.712;2023-10-31T05:46:12;4.93;;;3.90;;
42104;SDS011;70664;51.472;5.712;2023-10-31T05:48:39;5.43;;;3.47;;
42104;SDS011;70664;51.472;5.712;2023-10-31T05:51:12;6.72;;;3.83;;
42104;SDS011;70664;51.472;5.712;2023-10-31T05:53:39;4.57;;;3.58;;
42104;SDS011;70664;51.472;5.712;2023-10-31T05:56:07;3.80;;;3.40;;
42104;SDS011;70664;51.472;5.712;2023-10-31T05:58:34;4.15;;;3.42;;
42104;SDS011;70664;51.472;5.712;2023-10-31T06:01:02;5.07;;;4.03;;
42104;SDS011;70664;51.472;5.712;2023-10-31T06:03:28;5.53;;;3.65;;
42104;SDS011;70664;51.472;5.712;2023-10-31T06:05:54;4.60;;;3.75;;
42104;SDS011;70664;51.472;5.712;2023-10-31T06:08:20;4.07;;;3.58;;
42104;SDS011;70664;51.472;5.712;2023-10-31T06:10:45;5.22;;;3.67;;
42104;SDS011;70664;51.472;5.712;2023-10-31T06:13:11;4.82;;;3.80;;
42104;SDS011;70664;51.472;5.712;2023-10-31T06:15:37;4.63;;;3.42;;
42104;SDS011;70664;51.472;5.712;2023-10-31T06:18:03;4.50;;;3.53;;
42104;SDS011;70664;51.472;5.712;2023-10-31T06:20:29;4.88;;;3.67;;
42104;SDS011;70664;51.472;5.712;2023-10-31T06:22:54;4.88;;;3.63;;
42104;SDS011;70664;51.472;5.712;2023-10-31T06:25:20;4.45;;;3.70;;
42104;SDS011;70664;51.472;5.712;2023-10-31T06:27:46;6.07;;;3.90;;
42104;SDS011;70664;51.472;5.712;2023-10-31T06:30:12;6.53;;;3.75;;
42104;SDS011;70664;51.472;5.712;2023-10-31T06:32:38;3.83;;;3.15;;
42104;SDS011;70664;51.472;5.712;2023-10-31T06:35:05;4.38;;;3.45;;
42104;SDS011;70664;51.472;5.712;2023-10-31T06:37:32;5.50;;;3.60;;
42104;SDS011;70664;51.472;5.712;2023-10-31T06:39:57;4.55;;;3.35;;
42104;SDS011;70664;51.472;5.712;2023-10-31T06:42:23;6.00;;;3.35;;
42104;SDS011;70664;51.472;5.712;2023-10-31T06:44:49;4.35;;;3.22;;
42104;SDS011;70664;51.472;5.712;2023-10-31T06:47:15;4.30;;;2.85;;
42104;SDS011;70664;51.472;5.712;2023-10-31T06:49:41;4.30;;;3.50;;
42104;SDS011;70664;51.472;5.712;2023-10-31T06:52:06;5.72;;;3.40;;
42104;SDS011;70664;51.472;5.712;2023-10-31T06:54:32;4.32;;;3.42;;
42104;SDS011;70664;51.472;5.712;2023-10-31T06:56:59;3.75;;;3.28;;
42104;SDS011;70664;51.472;5.712;2023-10-31T06:59:26;6.80;;;3.58;;
42104;SDS011;70664;51.472;5.712;2023-10-31T07:01:54;4.78;;;3.28;;
42104;SDS011;70664;51.472;5.712;2023-10-31T07:04:20;4.10;;;3.60;;
42104;SDS011;70664;51.472;5.712;2023-10-31T07:06:46;5.25;;;3.50;;
42104;SDS011;70664;51.472;5.712;2023-10-31T07:09:11;4.57;;;3.55;;
42104;SDS011;70664;51.472;5.712;2023-10-31T07:11:37;3.85;;;3.40;;
42104;SDS011;70664;51.472;5.712;2023-10-31T07:14:03;4.85;;;3.55;;
42104;SDS011;70664;51.472;5.712;2023-10-31T07:16:29;5.25;;;3.70;;
42104;SDS011;70664;51.472;5.712;2023-10-31T07:18:57;3.83;;;3.30;;
42104;SDS011;70664;51.472;5.712;2023-10-31T07:21:23;3.90;;;3.50;;
42104;SDS011;70664;51.472;5.712;2023-10-31T07:23:49;5.45;;;3.92;;
42104;SDS011;70664;51.472;5.712;2023-10-31T07:26:14;4.07;;;3.20;;
42104;SDS011;70664;51.472;5.712;2023-10-31T07:28:40;4.88;;;3.35;;
42104;SDS011;70664;51.472;5.712;2023-10-31T07:31:06;5.25;;;3.50;;
42104;SDS011;70664;51.472;5.712;2023-10-31T07:33:32;3.67;;;3.00;;
42104;SDS011;70664;51.472;5.712;2023-10-31T07:35:58;3.85;;;3.22;;
42104;SDS011;70664;51.472;5.712;2023-10-31T07:38:23;4.63;;;3.35;;
42104;SDS011;70664;51.472;5.712;2023-10-31T07:40:49;4.15;;;3.08;;
42104;SDS011;70664;51.472;5.712;2023-10-31T07:43:15;6.30;;;3.60;;
42104;SDS011;70664;51.472;5.712;2023-10-31T07:45:41;4.53;;;3.30;;
42104;SDS011;70664;51.472;5.712;2023-10-31T07:48:07;3.88;;;3.28;;
42104;SDS011;70664;51.472;5.712;2023-10-31T07:50:34;4.47;;;3.22;;
42104;SDS011;70664;51.472;5.712;2023-10-31T07:52:59;3.67;;;3.00;;
42104;SDS011;70664;51.472;5.712;2023-10-31T07:55:25;3.58;;;3.17;;
42104;SDS011;70664;51.472;5.712;2023-10-31T07:57:51;4.00;;;3.22;;
42104;SDS011;70664;51.472;5.712;2023-10-31T08:00:18;3.90;;;2.80;;
42104;SDS011;70664;51.472;5.712;2023-10-31T08:02:43;4.85;;;3.20;;
42104;SDS011;70664;51.472;5.712;2023-10-31T08:05:09;3.88;;;2.90;;
42104;SDS011;70664;51.472;5.712;2023-10-31T08:07:36;3.42;;;3.13;;
42104;SDS011;70664;51.472;5.712;2023-10-31T08:10:02;3.60;;;3.00;;
42104;SDS011;70664;51.472;5.712;2023-10-31T08:12:29;4.15;;;3.55;;
42104;SDS011;70664;51.472;5.712;2023-10-31T08:14:55;4.55;;;3.17;;
42104;SDS011;70664;51.472;5.712;2023-10-31T08:17:21;4.32;;;3.10;;
42104;SDS011;70664;51.472;5.712;2023-10-31T08:19:47;4.18;;;3.15;;
42104;SDS011;70664;51.472;5.712;2023-10-31T08:22:13;3.67;;;2.97;;
42104;SDS011;70664;51.472;5.712;2023-10-31T08:24:38;3.38;;;3.00;;
42104;SDS011;70664;51.472;5.712;2023-10-31T08:27:04;4.25;;;3.20;;
42104;SDS011;70664;51.472;5.712;2023-10-31T08:29:30;3.60;;;2.88;;
42104;SDS011;70664;51.472;5.712;2023-10-31T08:31:57;3.85;;;3.42;;
42104;SDS011;70664;51.472;5.712;2023-10-31T08:34:22;3.35;;;2.90;;
42104;SDS011;70664;51.472;5.712;2023-10-31T08:36:48;6.15;;;3.97;;
42104;SDS011;70664;51.472;5.712;2023-10-31T08:39:15;5.18;;;3.70;;
42104;SDS011;70664;51.472;5.712;2023-10-31T08:41:53;5.43;;;3.80;;
42104;SDS011;70664;51.472;5.712;2023-10-31T08:44:20;5.82;;;4.00;;
42104;SDS011;70664;51.472;5.712;2023-10-31T08:46:47;4.03;;;3.60;;
42104;SDS011;70664;51.472;5.712;2023-10-31T08:49:14;4.30;;;3.60;;
42104;SDS011;70664;51.472;5.712;2023-10-31T08:51:41;4.18;;;3.72;;
42104;SDS011;70664;51.472;5.712;2023-10-31T08:54:07;4.60;;;3.88;;
42104;SDS011;70664;51.472;5.712;2023-10-31T08:56:34;6.85;;;4.72;;
42104;SDS011;70664;51.472;5.712;2023-10-31T08:59:00;7.07;;;4.82;;
42104;SDS011;70664;51.472;5.712;2023-10-31T09:01:26;5.80;;;4.47;;
42104;SDS011;70664;51.472;5.712;2023-10-31T09:03:54;4.63;;;4.22;;
42104;SDS011;70664;51.472;5.712;2023-10-31T09:06:20;6.13;;;5.30;;
42104;SDS011;70664;51.472;5.712;2023-10-31T09:08:46;5.40;;;4.82;;
42104;SDS011;70664;51.472;5.712;2023-10-31T09:11:11;6.10;;;5.18;;
42104;SDS011;70664;51.472;5.712;2023-10-31T09:13:37;8.60;;;5.57;;
42104;SDS011;70664;51.472;5.712;2023-10-31T09:16:03;5.88;;;5.20;;
42104;SDS011;70664;51.472;5.712;2023-10-31T09:18:29;6.43;;;5.55;;
42104;SDS011;70664;51.472;5.712;2023-10-31T09:20:55;5.43;;;4.82;;
42104;SDS011;70664;51.472;5.712;2023-10-31T09:23:21;8.65;;;5.22;;
42104;SDS011;70664;51.472;5.712;2023-10-31T09:25:47;6.00;;;5.20;;
42104;SDS011;70664;51.472;5.712;2023-10-31T09:28:12;8.38;;;5.50;;
42104;SDS011;70664;51.472;5.712;2023-10-31T09:30:38;5.80;;;5.10;;
42104;SDS011;70664;51.472;5.712;2023-10-31T09:33:04;6.38;;;5.70;;
42104;SDS011;70664;51.472;5.712;2023-10-31T09:35:30;6.20;;;5.57;;
42104;SDS011;70664;51.472;5.712;2023-10-31T09:37:55;8.18;;;5.90;;
42104;SDS011;70664;51.472;5.712;2023-10-31T09:40:22;8.30;;;5.72;;
42104;SDS011;70664;51.472;5.712;2023-10-31T09:42:48;6.13;;;5.30;;
42104;SDS011;70664;51.472;5.712;2023-10-31T09:45:14;5.97;;;5.38;;
42104;SDS011;70664;51.472;5.712;2023-10-31T09:47:41;6.55;;;5.70;;
42104;SDS011;70664;51.472;5.712;2023-10-31T09:50:08;6.72;;;5.75;;
42104;SDS011;70664;51.472;5.712;2023-10-31T09:52:38;6.35;;;5.35;;
42104;SDS011;70664;51.472;5.712;2023-10-31T09:55:04;7.28;;;5.35;;
42104;SDS011;70664;51.472;5.712;2023-10-31T09:57:31;6.30;;;5.60;;
42104;SDS011;70664;51.472;5.712;2023-10-31T09:59:57;6.20;;;5.60;;
42104;SDS011;70664;51.472;5.712;2023-10-31T10:02:23;7.13;;;5.40;;
42104;SDS011;70664;51.472;5.712;2023-10-31T10:04:50;8.93;;;5.90;;
42104;SDS011;70664;51.472;5.712;2023-10-31T10:07:16;5.70;;;4.95;;
42104;SDS011;70664;51.472;5.712;2023-10-31T10:09:43;7.10;;;5.65;;
42104;SDS011;70664;51.472;5.712;2023-10-31T10:12:15;8.10;;;5.63;;
42104;SDS011;70664;51.472;5.712;2023-10-31T10:14:41;6.57;;;5.65;;
42104;SDS011;70664;51.472;5.712;2023-10-31T10:17:15;6.30;;;5.70;;
42104;SDS011;70664;51.472;5.712;2023-10-31T10:19:41;6.78;;;5.57;;
42104;SDS011;70664;51.472;5.712;2023-10-31T10:22:07;7.60;;;5.85;;
42104;SDS011;70664;51.472;5.712;2023-10-31T10:24:32;6.53;;;5.45;;
42104;SDS011;70664;51.472;5.712;2023-10-31T10:26:58;6.85;;;5.97;;
42104;SDS011;70664;51.472;5.712;2023-10-31T10:29:24;6.40;;;5.72;;
42104;SDS011;70664;51.472;5.712;2023-10-31T10:31:51;6.90;;;5.57;;
42104;SDS011;70664;51.472;5.712;2023-10-31T10:34:17;7.40;;;6.05;;
42104;SDS011;70664;51.472;5.712;2023-10-31T10:36:46;6.35;;;5.75;;
42104;SDS011;70664;51.472;5.712;2023-10-31T10:39:15;7.18;;;5.55;;
42104;SDS011;70664;51.472;5.712;2023-10-31T10:41:54;7.50;;;5.80;;
42104;SDS011;70664;51.472;5.712;2023-10-31T10:44:32;7.22;;;5.88;;
42104;SDS011;70664;51.472;5.712;2023-10-31T10:47:03;7.18;;;5.63;;
42104;SDS011;70664;51.472;5.712;2023-10-31T10:49:34;11.00;;;6.10;;
42104;SDS011;70664;51.472;5.712;2023-10-31T10:57:38;8.30;;;6.03;;
42104;SDS011;70664;51.472;5.712;2023-10-31T11:00:27;17.90;;;7.13;;
42104;SDS011;70664;51.472;5.712;2023-10-31T11:02:54;12.65;;;6.80;;
42104;SDS011;70664;51.472;5.712;2023-10-31T11:05:21;13.07;;;6.97;;
42104;SDS011;70664;51.472;5.712;2023-10-31T11:07:49;10.10;;;6.20;;
42104;SDS011;70664;51.472;5.712;2023-10-31T11:10:17;18.25;;;6.57;;
42104;SDS011;70664;51.472;5.712;2023-10-31T11:12:43;10.15;;;6.20;;
42104;SDS011;70664;51.472;5.712;2023-10-31T11:15:11;12.10;;;6.20;;
42104;SDS011;70664;51.472;5.712;2023-10-31T11:17:42;11.23;;;6.35;;
42104;SDS011;70664;51.472;5.712;2023-10-31T11:20:10;13.18;;;6.18;;
42104;SDS011;70664;51.472;5.712;2023-10-31T11:22:40;11.05;;;6.25;;
42104;SDS011;70664;51.472;5.712;2023-10-31T11:25:17;11.88;;;5.63;;
42104;SDS011;70664;51.472;5.712;2023-10-31T11:27:51;11.40;;;6.43;;
42104;SDS011;70664;51.472;5.712;2023-10-31T11:32:54;11.52;;;6.40;;
42104;SDS011;70664;51.472;5.712;2023-10-31T11:35:24;10.02;;;5.88;;
42104;SDS011;70664;51.472;5.712;2023-10-31T11:38:11;11.68;;;5.47;;
42104;SDS011;70664;51.472;5.712;2023-10-31T11:40:37;9.30;;;5.32;;
42104;SDS011;70664;51.472;5.712;2023-10-31T11:43:09;9.93;;;5.45;;
42104;SDS011;70664;51.472;5.712;2023-10-31T11:45:37;10.80;;;5.32;;
42104;SDS011;70664;51.472;5.712;2023-10-31T11:48:07;12.77;;;5.90;;
42104;SDS011;70664;51.472;5.712;2023-10-31T11:50:35;9.85;;;5.30;;
42104;SDS011;70664;51.472;5.712;2023-10-31T11:53:09;9.60;;;5.47;;
42104;SDS011;70664;51.472;5.712;2023-10-31T11:55:47;9.98;;;5.05;;
42104;SDS011;70664;51.472;5.712;2023-10-31T11:58:20;11.68;;;5.72;;
42104;SDS011;70664;51.472;5.712;2023-10-31T12:00:48;11.60;;;5.40;;
42104;SDS011;70664;51.472;5.712;2023-10-31T12:03:17;10.98;;;5.13;;
42104;SDS011;70664;51.472;5.712;2023-10-31T12:05:55;10.55;;;5.03;;
42104;SDS011;70664;51.472;5.712;2023-10-31T12:11:02;12.32;;;4.72;;
42104;SDS011;70664;51.472;5.712;2023-10-31T12:16:30;9.35;;;4.68;;
42104;SDS011;70664;51.472;5.712;2023-10-31T12:18:58;6.88;;;4.47;;
42104;SDS011;70664;51.472;5.712;2023-10-31T12:22:00;8.50;;;4.50;;
42104;SDS011;70664;51.472;5.712;2023-10-31T12:24:21;9.02;;;5.03;;
42104;SDS011;70664;51.472;5.712;2023-10-31T12:26:47;9.30;;;4.93;;
42104;SDS011;70664;51.472;5.712;2023-10-31T12:29:14;12.98;;;5.80;;
42104;SDS011;70664;51.472;5.712;2023-10-31T12:31:46;8.48;;;5.07;;
42104;SDS011;70664;51.472;5.712;2023-10-31T12:34:20;8.90;;;5.28;;
42104;SDS011;70664;51.472;5.712;2023-10-31T12:36:49;10.93;;;4.78;;
42104;SDS011;70664;51.472;5.712;2023-10-31T12:39:18;8.27;;;4.38;;
42104;SDS011;70664;51.472;5.712;2023-10-31T12:41:47;13.60;;;4.85;;
42104;SDS011;70664;51.472;5.712;2023-10-31T12:44:16;7.25;;;4.20;;
42104;SDS011;70664;51.472;5.712;2023-10-31T12:46:49;12.05;;;4.63;;
42104;SDS011;70664;51.472;5.712;2023-10-31T12:49:16;10.65;;;5.28;;
42104;SDS011;70664;51.472;5.712;2023-10-31T12:54:29;10.35;;;4.50;;
42104;SDS011;70664;51.472;5.712;2023-10-31T12:57:01;5.93;;;4.10;;
42104;SDS011;70664;51.472;5.712;2023-10-31T12:59:29;6.75;;;4.05;;
42104;SDS011;70664;51.472;5.712;2023-10-31T13:01:56;7.78;;;4.00;;
42104;SDS011;70664;51.472;5.712;2023-10-31T13:04:25;8.57;;;4.40;;
42104;SDS011;70664;51.472;5.712;2023-10-31T13:06:58;13.63;;;4.60;;
42104;SDS011;70664;51.472;5.712;2023-10-31T13:09:36;7.10;;;3.70;;
42104;SDS011;70664;51.472;5.712;2023-10-31T13:12:07;8.05;;;3.97;;
42104;SDS011;70664;51.472;5.712;2023-10-31T13:14:36;13.55;;;4.78;;
42104;SDS011;70664;51.472;5.712;2023-10-31T13:17:03;8.90;;;4.85;;
42104;SDS011;70664;51.472;5.712;2023-10-31T13:19:29;6.75;;;4.28;;
42104;SDS011;70664;51.472;5.712;2023-10-31T13:21:54;7.85;;;4.10;;
42104;SDS011;70664;51.472;5.712;2023-10-31T13:24:20;9.98;;;4.22;;
42104;SDS011;70664;51.472;5.712;2023-10-31T13:26:46;5.47;;;4.10;;
42104;SDS011;70664;51.472;5.712;2023-10-31T13:29:16;7.65;;;4.20;;
42104;SDS011;70664;51.472;5.712;2023-10-31T13:31:45;8.52;;;3.83;;
42104;SDS011;70664;51.472;5.712;2023-10-31T13:34:11;5.55;;;4.07;;
42104;SDS011;70664;51.472;5.712;2023-10-31T13:36:37;9.10;;;3.90;;
42104;SDS011;70664;51.472;5.712;2023-10-31T13:39:03;6.97;;;3.88;;
42104;SDS011;70664;51.472;5.712;2023-10-31T13:41:29;6.38;;;3.40;;
42104;SDS011;70664;51.472;5.712;2023-10-31T13:43:55;6.18;;;3.50;;
42104;SDS011;70664;51.472;5.712;2023-10-31T13:46:20;7.00;;;3.85;;
42104;SDS011;70664;51.472;5.712;2023-10-31T13:48:48;7.15;;;4.20;;
42104;SDS011;70664;51.472;5.712;2023-10-31T13:51:14;7.25;;;3.53;;
42104;SDS011;70664;51.472;5.712;2023-10-31T13:53:40;7.60;;;3.75;;
42104;SDS011;70664;51.472;5.712;2023-10-31T13:56:05;12.02;;;3.65;;
42104;SDS011;70664;51.472;5.712;2023-10-31T13:58:32;9.15;;;3.83;;
42104;SDS011;70664;51.472;5.712;2023-10-31T14:00:57;7.72;;;3.67;;
42104;SDS011;70664;51.472;5.712;2023-10-31T14:03:23;6.13;;;3.53;;
42104;SDS011;70664;51.472;5.712;2023-10-31T14:05:49;9.65;;;3.67;;
42104;SDS011;70664;51.472;5.712;2023-10-31T14:08:15;6.90;;;3.63;;
42104;SDS011;70664;51.472;5.712;2023-10-31T14:10:40;5.60;;;3.80;;
42104;SDS011;70664;51.472;5.712;2023-10-31T14:13:10;6.82;;;3.92;;
42104;SDS011;70664;51.472;5.712;2023-10-31T14:15:37;5.65;;;3.45;;
42104;SDS011;70664;51.472;5.712;2023-10-31T14:18:03;5.38;;;3.45;;
42104;SDS011;70664;51.472;5.712;2023-10-31T14:20:29;5.38;;;3.55;;
42104;SDS011;70664;51.472;5.712;2023-10-31T14:22:54;8.38;;;3.78;;
42104;SDS011;70664;51.472;5.712;2023-10-31T14:25:20;8.10;;;4.00;;
42104;SDS011;70664;51.472;5.712;2023-10-31T14:27:46;10.25;;;6.43;;
42104;SDS011;70664;51.472;5.712;2023-10-31T14:30:12;16.38;;;7.40;;
42104;SDS011;70664;51.472;5.712;2023-10-31T14:32:38;23.38;;;8.68;;
42104;SDS011;70664;51.472;5.712;2023-10-31T14:35:05;35.00;;;14.02;;
42104;SDS011;70664;51.472;5.712;2023-10-31T14:37:31;35.10;;;14.23;;
42104;SDS011;70664;51.472;5.712;2023-10-31T14:39:58;34.75;;;14.73;;
42104;SDS011;70664;51.472;5.712;2023-10-31T14:42:23;38.28;;;17.42;;
42104;SDS011;70664;51.472;5.712;2023-10-31T14:44:49;49.13;;;18.00;;
42104;SDS011;70664;51.472;5.712;2023-10-31T14:47:15;41.85;;;16.73;;
42104;SDS011;70664;51.472;5.712;2023-10-31T14:49:41;46.92;;;16.45;;
42104;SDS011;70664;51.472;5.712;2023-10-31T14:52:07;39.92;;;16.00;;
42104;SDS011;70664;51.472;5.712;2023-10-31T14:54:33;42.42;;;15.43;;
42104;SDS011;70664;51.472;5.712;2023-10-31T14:57:02;35.33;;;13.88;;
42104;SDS011;70664;51.472;5.712;2023-10-31T14:59:28;36.33;;;14.15;;